Weather at Dutchess County Airport

Public forecast

Using degrees Fahrenheit for public forecast. Weather courtesy of forecast.io.

Current aviation weather report (METAR) for Dutchess County Airport

Retrieved 2021/01/17 00:53 UTC (22 minutes ago):

KPOU 170053Z AUTO 26011G19KT 10SM FEW120 03/M04 A2939 RMK AO2 SLP950 T00331044 TSNO

Aviation forecast (TAF) for Dutchess County Airport

Retrieved 2021-01-17 00:54 UTC (21 minutes ago):

TAF KPOU 162353Z 1700/1724 26008KT P6SM VCSH OVC060 FM170200 25009KT P6SM SCT060 OVC120 FM170600 25012G18KT P6SM SCT120 FM171400 24013G22KT P6SM SCT035 FM171800 25014G24KT P6SM BKN035